sensor_id;sensor_type;location;lat;lon;timestamp;pressure;altitude;pressure_sealevel;temperature
69415;BMP280;56608;43.530;-5.652;2023-03-01T00:00:29;102306.84;;;8.94
69415;BMP280;56608;43.530;-5.652;2023-03-01T00:01:31;102316.03;;;9.00
69415;BMP280;56608;43.530;-5.652;2023-03-01T00:02:33;102303.41;;;8.97
69415;BMP280;56608;43.530;-5.652;2023-03-01T00:03:35;102310.69;;;9.00
69415;BMP280;56608;43.530;-5.652;2023-03-01T00:04:35;102311.41;;;8.93
69415;BMP280;56608;43.530;-5.652;2023-03-01T00:05:44;102309.50;;;8.87
69415;BMP280;56608;43.530;-5.652;2023-03-01T00:06:45;102303.78;;;8.88
69415;BMP280;56608;43.530;-5.652;2023-03-01T00:07:47;102302.22;;;8.87
69415;BMP280;56608;43.530;-5.652;2023-03-01T00:08:49;102299.94;;;8.93
69415;BMP280;56608;43.530;-5.652;2023-03-01T00:09:51;102302.59;;;8.93
69415;BMP280;56608;43.530;-5.652;2023-03-01T00:11:10;102288.44;;;8.92
69415;BMP280;56608;43.530;-5.652;2023-03-01T00:12:12;102298.78;;;8.87
69415;BMP280;56608;43.530;-5.652;2023-03-01T00:13:14;102295.28;;;8.83
69415;BMP280;56608;43.530;-5.652;2023-03-01T00:14:15;102296.47;;;8.85
69415;BMP280;56608;43.530;-5.652;2023-03-01T00:15:20;102293.44;;;8.87
69415;BMP280;56608;43.530;-5.652;2023-03-01T00:16:25;102286.91;;;8.88
69415;BMP280;56608;43.530;-5.652;2023-03-01T00:17:27;102289.97;;;8.86
69415;BMP280;56608;43.530;-5.652;2023-03-01T00:18:28;102290.75;;;8.90
69415;BMP280;56608;43.530;-5.652;2023-03-01T00:19:30;102278.13;;;8.91
69415;BMP280;56608;43.530;-5.652;2023-03-01T00:20:34;102281.16;;;8.86
69415;BMP280;56608;43.530;-5.652;2023-03-01T00:21:35;102270.03;;;8.80
69415;BMP280;56608;43.530;-5.652;2023-03-01T00:22:37;102268.16;;;8.88
69415;BMP280;56608;43.530;-5.652;2023-03-01T00:23:38;102263.56;;;8.85
69415;BMP280;56608;43.530;-5.652;2023-03-01T00:24:40;102259.34;;;8.84
69415;BMP280;56608;43.530;-5.652;2023-03-01T00:25:42;102260.87;;;8.85
69415;BMP280;56608;43.530;-5.652;2023-03-01T00:26:44;102247.06;;;8.79
69415;BMP280;56608;43.530;-5.652;2023-03-01T00:27:46;102255.50;;;8.85
69415;BMP280;56608;43.530;-5.652;2023-03-01T00:28:47;102240.94;;;8.79
69415;BMP280;56608;43.530;-5.652;2023-03-01T00:29:49;102234.03;;;8.78
69415;BMP280;56608;43.530;-5.652;2023-03-01T00:30:49;102238.25;;;8.75
69415;BMP280;56608;43.530;-5.652;2023-03-01T00:31:51;102246.28;;;8.79
69415;BMP280;56608;43.530;-5.652;2023-03-01T00:32:53;102245.12;;;8.73
69415;BMP280;56608;43.530;-5.652;2023-03-01T00:33:57;102240.91;;;8.75
69415;BMP280;56608;43.530;-5.652;2023-03-01T00:34:59;102237.09;;;8.73
69415;BMP280;56608;43.530;-5.652;2023-03-01T00:36:00;102243.63;;;8.72
69415;BMP280;56608;43.530;-5.652;2023-03-01T00:37:01;102241.31;;;8.74
69415;BMP280;56608;43.530;-5.652;2023-03-01T00:38:06;102232.09;;;8.64
69415;BMP280;56608;43.530;-5.652;2023-03-01T00:39:09;102243.97;;;8.67
69415;BMP280;56608;43.530;-5.652;2023-03-01T00:40:11;102227.47;;;8.57
69415;BMP280;56608;43.530;-5.652;2023-03-01T00:41:13;102230.19;;;8.65
69415;BMP280;56608;43.530;-5.652;2023-03-01T00:42:16;102225.91;;;8.53
69415;BMP280;56608;43.530;-5.652;2023-03-01T00:43:18;102227.09;;;8.52
69415;BMP280;56608;43.530;-5.652;2023-03-01T00:44:18;102234.38;;;8.51
69415;BMP280;56608;43.530;-5.652;2023-03-01T00:45:20;102227.84;;;8.49
69415;BMP280;56608;43.530;-5.652;2023-03-01T00:46:22;102227.06;;;8.45
69415;BMP280;56608;43.530;-5.652;2023-03-01T00:47:24;102227.06;;;8.45
69415;BMP280;56608;43.530;-5.652;2023-03-01T00:48:25;102233.97;;;8.42
69415;BMP280;56608;43.530;-5.652;2023-03-01T00:49:26;102240.81;;;8.43
69415;BMP280;56608;43.530;-5.652;2023-03-01T00:50:28;102229.34;;;8.39
69415;BMP280;56608;43.530;-5.652;2023-03-01T00:51:30;102240.06;;;8.46
69415;BMP280;56608;43.530;-5.652;2023-03-01T00:52:32;102238.53;;;8.45
69415;BMP280;56608;43.530;-5.652;2023-03-01T00:53:34;102242.38;;;8.48
69415;BMP280;56608;43.530;-5.652;2023-03-01T00:54:35;102238.91;;;8.44
69415;BMP280;56608;43.530;-5.652;2023-03-01T00:55:36;102249.28;;;8.49
69415;BMP280;56608;43.530;-5.652;2023-03-01T00:56:38;102238.53;;;8.38
69415;BMP280;56608;43.530;-5.652;2023-03-01T00:57:39;102240.81;;;8.43
69415;BMP280;56608;43.530;-5.652;2023-03-01T00:58:40;102236.25;;;8.40
69415;BMP280;56608;43.530;-5.652;2023-03-01T00:59:42;102242.34;;;8.37
69415;BMP280;56608;43.530;-5.652;2023-03-01T01:00:42;102247.69;;;8.37
69415;BMP280;56608;43.530;-5.652;2023-03-01T01:01:44;102253.44;;;8.39
69415;BMP280;56608;43.530;-5.652;2023-03-01T01:02:46;102241.56;;;8.33
69415;BMP280;56608;43.530;-5.652;2023-03-01T01:03:47;102255.34;;;8.39
69415;BMP280;56608;43.530;-5.652;2023-03-01T01:04:49;102247.69;;;8.37
69415;BMP280;56608;43.530;-5.652;2023-03-01T01:05:51;102249.97;;;8.35
69415;BMP280;56608;43.530;-5.652;2023-03-01T01:06:53;102236.19;;;8.30
69415;BMP280;56608;43.530;-5.652;2023-03-01T01:07:54;102239.22;;;8.25
69415;BMP280;56608;43.530;-5.652;2023-03-01T01:08:56;102243.81;;;8.28
69415;BMP280;56608;43.530;-5.652;2023-03-01T01:09:58;102233.09;;;8.24
69415;BMP280;56608;43.530;-5.652;2023-03-01T01:10:58;102238.84;;;8.30
69415;BMP280;56608;43.530;-5.652;2023-03-01T01:12:00;102240.37;;;8.27
69415;BMP280;56608;43.530;-5.652;2023-03-01T01:13:02;102231.19;;;8.21
69415;BMP280;56608;43.530;-5.652;2023-03-01T01:14:03;102241.13;;;8.28
69415;BMP280;56608;43.530;-5.652;2023-03-01T01:15:05;102236.91;;;8.23
69415;BMP280;56608;43.530;-5.652;2023-03-01T01:16:05;102236.53;;;8.25
69415;BMP280;56608;43.530;-5.652;2023-03-01T01:17:07;102230.78;;;8.19
69415;BMP280;56608;43.530;-5.652;2023-03-01T01:18:09;102228.47;;;8.17
69415;BMP280;56608;43.530;-5.652;2023-03-01T01:19:11;102223.91;;;8.18
69415;BMP280;56608;43.530;-5.652;2023-03-01T01:20:12;102239.22;;;8.21
69415;BMP280;56608;43.530;-5.652;2023-03-01T01:21:16;102231.53;;;8.16
69415;BMP280;56608;43.530;-5.652;2023-03-01T01:22:17;102223.84;;;8.07
69415;BMP280;56608;43.530;-5.652;2023-03-01T01:23:19;102223.03;;;8.00
69415;BMP280;56608;43.530;-5.652;2023-03-01T01:24:20;102217.66;;;7.96
69415;BMP280;56608;43.530;-5.652;2023-03-01T01:25:22;102210.75;;;7.95
69415;BMP280;56608;43.530;-5.652;2023-03-01T01:26:29;102219.97;;;7.98
69415;BMP280;56608;43.530;-5.652;2023-03-01T01:27:30;102218.44;;;8.00
69415;BMP280;56608;43.530;-5.652;2023-03-01T01:28:32;102221.84;;;7.94
69415;BMP280;56608;43.530;-5.652;2023-03-01T01:29:33;102219.53;;;7.92
69415;BMP280;56608;43.530;-5.652;2023-03-01T01:30:35;102223.69;;;7.82
69415;BMP280;56608;43.530;-5.652;2023-03-01T01:31:38;102225.53;;;7.71
69415;BMP280;56608;43.530;-5.652;2023-03-01T01:32:40;102221.69;;;7.65
69415;BMP280;56608;43.530;-5.652;2023-03-01T01:33:41;102226.56;;;7.56
69415;BMP280;56608;43.530;-5.652;2023-03-01T01:34:42;102220.09;;;7.61
69415;BMP280;56608;43.530;-5.652;2023-03-01T01:35:45;102228.12;;;7.61
69415;BMP280;56608;43.530;-5.652;2023-03-01T01:36:51;102216.50;;;7.39
69415;BMP280;56608;43.530;-5.652;2023-03-01T01:37:56;102218.00;;;7.36
69415;BMP280;56608;43.530;-5.652;2023-03-01T01:38:57;102205.03;;;7.38
69415;BMP280;56608;43.530;-5.652;2023-03-01T01:40:00;102202.63;;;7.26
69415;BMP280;56608;43.530;-5.652;2023-03-01T01:41:03;102220.94;;;7.21
69415;BMP280;56608;43.530;-5.652;2023-03-01T01:42:04;102218.62;;;7.23
69415;BMP280;56608;43.530;-5.652;2023-03-01T01:43:31;102207.53;;;7.17
69415;BMP280;56608;43.530;-5.652;2023-03-01T01:44:32;102206.50;;;7.29
69415;BMP280;56608;43.530;-5.652;2023-03-01T01:45:35;102210.34;;;7.35
69415;BMP280;56608;43.530;-5.652;2023-03-01T01:46:49;102211.88;;;7.36
69415;BMP280;56608;43.530;-5.652;2023-03-01T01:47:53;102212.63;;;7.33
69415;BMP280;56608;43.530;-5.652;2023-03-01T01:49:20;102206.44;;;7.25
69415;BMP280;56608;43.530;-5.652;2023-03-01T01:50:23;102200.72;;;7.27
69415;BMP280;56608;43.530;-5.652;2023-03-01T01:51:28;102204.81;;;7.13
69415;BMP280;56608;43.530;-5.652;2023-03-01T01:52:39;102202.91;;;7.14
69415;BMP280;56608;43.530;-5.652;2023-03-01T01:53:40;102198.00;;;7.20
69415;BMP280;56608;43.530;-5.652;2023-03-01T01:54:53;102190.91;;;6.97
69415;BMP280;56608;43.530;-5.652;2023-03-01T01:55:58;102193.13;;;6.88
69415;BMP280;56608;43.530;-5.652;2023-03-01T01:57:03;102193.97;;;6.99
69415;BMP280;56608;43.530;-5.652;2023-03-01T01:58:07;102181.72;;;6.91
69415;BMP280;56608;43.530;-5.652;2023-03-01T01:59:10;102180.13;;;6.83
69415;BMP280;56608;43.530;-5.652;2023-03-01T02:00:14;102192.97;;;6.74
69415;BMP280;56608;43.530;-5.652;2023-03-01T02:01:16;102173.00;;;6.61
69415;BMP280;56608;43.530;-5.652;2023-03-01T02:02:18;102183.72;;;6.64
69415;BMP280;56608;43.530;-5.652;2023-03-01T02:03:27;102177.94;;;6.59
69415;BMP280;56608;43.530;-5.652;2023-03-01T02:04:32;102168.00;;;6.56
69415;BMP280;56608;43.530;-5.652;2023-03-01T02:07:14;102177.09;;;6.51
69415;BMP280;56608;43.530;-5.652;2023-03-01T02:08:18;102170.66;;;6.56
69415;BMP280;56608;43.530;-5.652;2023-03-01T02:09:20;102175.09;;;6.44
69415;BMP280;56608;43.530;-5.652;2023-03-01T02:10:23;102169.75;;;6.44
69415;BMP280;56608;43.530;-5.652;2023-03-01T02:11:25;102154.78;;;6.36
69415;BMP280;56608;43.530;-5.652;2023-03-01T02:12:29;102163.25;;;6.45
69415;BMP280;56608;43.530;-5.652;2023-03-01T02:13:31;102156.69;;;6.36
69415;BMP280;56608;43.530;-5.652;2023-03-01T02:14:33;102155.25;;;6.42
69415;BMP280;56608;43.530;-5.652;2023-03-01T02:15:36;102159.84;;;6.45
69415;BMP280;56608;43.530;-5.652;2023-03-01T02:16:38;102152.94;;;6.40
69415;BMP280;56608;43.530;-5.652;2023-03-01T02:17:39;102151.41;;;6.39
69415;BMP280;56608;43.530;-5.652;2023-03-01T02:18:41;102149.91;;;6.42
69415;BMP280;56608;43.530;-5.652;2023-03-01T02:22:15;102141.87;;;6.08
69415;BMP280;56608;43.530;-5.652;2023-03-01T02:23:18;102140.91;;;5.94
69415;BMP280;56608;43.530;-5.652;2023-03-01T02:26:01;102131.50;;;6.00
69415;BMP280;56608;43.530;-5.652;2023-03-01T02:27:01;102124.53;;;5.95
69415;BMP280;56608;43.530;-5.652;2023-03-01T02:29:20;102121.69;;;5.81
69415;BMP280;56608;43.530;-5.652;2023-03-01T02:30:22;102118.63;;;5.79
69415;BMP280;56608;43.530;-5.652;2023-03-01T02:31:25;102108.22;;;5.70
69415;BMP280;56608;43.530;-5.652;2023-03-01T02:32:46;102107.59;;;5.80
69415;BMP280;56608;43.530;-5.652;2023-03-01T02:33:48;102105.66;;;5.77
69415;BMP280;56608;43.530;-5.652;2023-03-01T02:34:52;102107.53;;;5.73
69415;BMP280;56608;43.530;-5.652;2023-03-01T02:35:54;102105.63;;;5.74
69415;BMP280;56608;43.530;-5.652;2023-03-01T02:37:00;102104.41;;;5.71
69415;BMP280;56608;43.530;-5.652;2023-03-01T02:38:03;102104.31;;;5.64
69415;BMP280;56608;43.530;-5.652;2023-03-01T02:39:07;102098.56;;;5.62
69415;BMP280;56608;43.530;-5.652;2023-03-01T02:40:17;102084.09;;;5.63
69415;BMP280;56608;43.530;-5.652;2023-03-01T02:41:20;102091.09;;;5.71
69415;BMP280;56608;43.530;-5.652;2023-03-01T02:42:26;102084.81;;;5.60
69415;BMP280;56608;43.530;-5.652;2023-03-01T02:43:31;102090.25;;;5.67
69415;BMP280;56608;43.530;-5.652;2023-03-01T02:44:33;102078.00;;;5.63
69415;BMP280;56608;43.530;-5.652;2023-03-01T02:45:35;102080.91;;;5.51
69415;BMP280;56608;43.530;-5.652;2023-03-01T02:46:46;102088.59;;;5.56
69415;BMP280;56608;43.530;-5.652;2023-03-01T02:47:47;102092.44;;;5.58
69415;BMP280;56608;43.530;-5.652;2023-03-01T02:48:52;102084.09;;;5.63
69415;BMP280;56608;43.530;-5.652;2023-03-01T02:49:53;102073.38;;;5.56
69415;BMP280;56608;43.530;-5.652;2023-03-01T02:51:05;102082.84;;;5.54
69415;BMP280;56608;43.530;-5.652;2023-03-01T02:52:43;102069.47;;;5.50
69415;BMP280;56608;43.530;-5.652;2023-03-01T02:55:15;102067.56;;;5.51
69415;BMP280;56608;43.530;-5.652;2023-03-01T02:56:18;102069.75;;;5.45
69415;BMP280;56608;43.530;-5.652;2023-03-01T02:57:19;102065.72;;;5.55
69415;BMP280;56608;43.530;-5.652;2023-03-01T02:58:22;102068.75;;;5.53
69415;BMP280;56608;43.530;-5.652;2023-03-01T02:59:31;102068.03;;;5.56
69415;BMP280;56608;43.530;-5.652;2023-03-01T03:00:42;102068.44;;;5.58
69415;BMP280;56608;43.530;-5.652;2023-03-01T03:01:48;102068.13;;;5.63
69415;BMP280;56608;43.530;-5.652;2023-03-01T03:02:51;102080.25;;;5.57
69415;BMP280;56608;43.530;-5.652;2023-03-01T03:03:53;102075.81;;;5.42
69415;BMP280;56608;43.530;-5.652;2023-03-01T03:04:54;102068.47;;;5.35
69415;BMP280;56608;43.530;-5.652;2023-03-01T03:05:55;102073.00;;;5.31
69415;BMP280;56608;43.530;-5.652;2023-03-01T03:06:57;102065.31;;;5.26
69415;BMP280;56608;43.530;-5.652;2023-03-01T03:08:00;102068.47;;;5.35
69415;BMP280;56608;43.530;-5.652;2023-03-01T03:09:03;102073.16;;;5.42
69415;BMP280;56608;43.530;-5.652;2023-03-01T03:10:08;102059.53;;;5.47
69415;BMP280;56608;43.530;-5.652;2023-03-01T03:11:10;102055.72;;;5.48
69415;BMP280;56608;43.530;-5.652;2023-03-01T03:12:10;102069.19;;;5.59
69415;BMP280;56608;43.530;-5.652;2023-03-01T03:13:13;102066.50;;;5.55
69415;BMP280;56608;43.530;-5.652;2023-03-01T03:14:16;102069.06;;;5.48
69415;BMP280;56608;43.530;-5.652;2023-03-01T03:15:19;102068.75;;;5.53
69415;BMP280;56608;43.530;-5.652;2023-03-01T03:16:21;102055.78;;;5.52
69415;BMP280;56608;43.530;-5.652;2023-03-01T03:17:22;102062.72;;;5.56
69415;BMP280;56608;43.530;-5.652;2023-03-01T03:18:24;102057.31;;;5.53
69415;BMP280;56608;43.530;-5.652;2023-03-01T03:19:29;102045.91;;;5.52
69415;BMP280;56608;43.530;-5.652;2023-03-01T03:20:30;102059.28;;;5.59
69415;BMP280;56608;43.530;-5.652;2023-03-01T03:21:33;102054.72;;;5.60
69415;BMP280;56608;43.530;-5.652;2023-03-01T03:22:34;102049.03;;;5.58
69415;BMP280;56608;43.530;-5.652;2023-03-01T03:23:36;102042.94;;;5.61
69415;BMP280;56608;43.530;-5.652;2023-03-01T03:24:36;102047.91;;;5.62
69415;BMP280;56608;43.530;-5.652;2023-03-01T03:25:39;102046.78;;;5.63
69415;BMP280;56608;43.530;-5.652;2023-03-01T03:26:40;102050.25;;;5.67
69415;BMP280;56608;43.530;-5.652;2023-03-01T03:27:43;102055.25;;;5.69
69415;BMP280;56608;43.530;-5.652;2023-03-01T03:28:45;102049.50;;;5.67
69415;BMP280;56608;43.530;-5.652;2023-03-01T03:29:47;102041.88;;;5.65
69415;BMP280;56608;43.530;-5.652;2023-03-01T03:30:49;102043.03;;;5.68
69415;BMP280;56608;43.530;-5.652;2023-03-01T03:31:49;102050.78;;;5.76
69415;BMP280;56608;43.530;-5.652;2023-03-01T03:32:52;102044.31;;;5.77
69415;BMP280;56608;43.530;-5.652;2023-03-01T03:33:53;102040.09;;;5.73
69415;BMP280;56608;43.530;-5.652;2023-03-01T03:34:54;102043.91;;;5.75
69415;BMP280;56608;43.530;-5.652;2023-03-01T03:35:56;102032.41;;;5.71
69415;BMP280;56608;43.530;-5.652;2023-03-01T03:36:57;102029.72;;;5.68
69415;BMP280;56608;43.530;-5.652;2023-03-01T03:38:03;102028.22;;;5.70
69415;BMP280;56608;43.530;-5.652;2023-03-01T03:39:06;102027.00;;;5.64
69415;BMP280;56608;43.530;-5.652;2023-03-01T03:40:08;102027.69;;;5.58
69415;BMP280;56608;43.530;-5.652;2023-03-01T03:41:16;102032.25;;;5.57
69415;BMP280;56608;43.530;-5.652;2023-03-01T03:42:18;102026.94;;;5.57
69415;BMP280;56608;43.530;-5.652;2023-03-01T03:43:21;102034.53;;;5.59
69415;BMP280;56608;43.530;-5.652;2023-03-01T03:44:23;102019.59;;;5.51
69415;BMP280;56608;43.530;-5.652;2023-03-01T03:45:24;102024.88;;;5.47
69415;BMP280;56608;43.530;-5.652;2023-03-01T03:46:26;102013.09;;;5.48
69415;BMP280;56608;43.530;-5.652;2023-03-01T03:47:27;102015.44;;;5.53
69415;BMP280;56608;43.530;-5.652;2023-03-01T03:48:28;102005.59;;;5.57
69415;BMP280;56608;43.530;-5.652;2023-03-01T03:49:30;102018.47;;;5.52
69415;BMP280;56608;43.530;-5.652;2023-03-01T03:50:30;102013.69;;;5.38
69415;BMP280;56608;43.530;-5.652;2023-03-01T03:51:32;102009.91;;;5.39
69415;BMP280;56608;43.530;-5.652;2023-03-01T03:52:33;102011.44;;;5.40
69415;BMP280;56608;43.530;-5.652;2023-03-01T03:53:35;102014.13;;;5.40
69415;BMP280;56608;43.530;-5.652;2023-03-01T03:54:36;102006.72;;;5.30
69415;BMP280;56608;43.530;-5.652;2023-03-01T03:55:38;102000.69;;;5.33
69415;BMP280;56608;43.530;-5.652;2023-03-01T03:56:42;102004.88;;;5.34
69415;BMP280;56608;43.530;-5.652;2023-03-01T03:57:47;102009.09;;;5.35
69415;BMP280;56608;43.530;-5.652;2023-03-01T03:58:55;101993.06;;;5.31
69415;BMP280;56608;43.530;-5.652;2023-03-01T03:59:56;101992.22;;;5.24
69415;BMP280;56608;43.530;-5.652;2023-03-01T04:00:57;101994.19;;;5.30
69415;BMP280;56608;43.530;-5.652;2023-03-01T04:01:59;101980.69;;;5.20
69415;BMP280;56608;43.530;-5.652;2023-03-01T04:03:01;101990.03;;;5.33
69415;BMP280;56608;43.530;-5.652;2023-03-01T04:04:02;101987.28;;;5.26
69415;BMP280;56608;43.530;-5.652;2023-03-01T04:05:06;101998.38;;;5.31
69415;BMP280;56608;43.530;-5.652;2023-03-01T04:06:07;101995.00;;;5.34
69415;BMP280;56608;43.530;-5.652;2023-03-01T04:07:09;101997.59;;;5.31
69415;BMP280;56608;43.530;-5.652;2023-03-01T04:08:10;101999.97;;;5.36
69415;BMP280;56608;43.530;-5.652;2023-03-01T04:09:12;101990.84;;;5.37
69415;BMP280;56608;43.530;-5.652;2023-03-01T04:10:16;102001.09;;;5.35
69415;BMP280;56608;43.530;-5.652;2023-03-01T04:11:18;102010.22;;;5.34
69415;BMP280;56608;43.530;-5.652;2023-03-01T04:12:28;101993.00;;;5.28
69415;BMP280;56608;43.530;-5.652;2023-03-01T04:13:28;101999.16;;;5.32
69415;BMP280;56608;43.530;-5.652;2023-03-01T04:14:30;101987.78;;;5.35
69415;BMP280;56608;43.530;-5.652;2023-03-01T04:15:32;101992.75;;;5.36
69415;BMP280;56608;43.530;-5.652;2023-03-01T04:16:34;101994.59;;;5.32
69415;BMP280;56608;43.530;-5.652;2023-03-01T04:17:35;101993.47;;;5.33
69415;BMP280;56608;43.530;-5.652;2023-03-01T04:18:36;101986.53;;;5.29
69415;BMP280;56608;43.530;-5.652;2023-03-01T04:19:38;101981.56;;;5.24
69415;BMP280;56608;43.530;-5.652;2023-03-01T04:20:39;102000.63;;;5.29
69415;BMP280;56608;43.530;-5.652;2023-03-01T04:21:41;101996.13;;;5.33
69415;BMP280;56608;43.530;-5.652;2023-03-01T04:22:43;101996.91;;;5.34
69415;BMP280;56608;43.530;-5.652;2023-03-01T04:23:47;101994.19;;;5.30
69415;BMP280;56608;43.530;-5.652;2023-03-01T04:24:49;101992.03;;;5.39
69415;BMP280;56608;43.530;-5.652;2023-03-01T04:25:51;101991.25;;;5.39
69415;BMP280;56608;43.530;-5.652;2023-03-01T04:26:56;101980.50;;;5.32
69415;BMP280;56608;43.530;-5.652;2023-03-01T04:27:57;101976.28;;;5.31
69415;BMP280;56608;43.530;-5.652;2023-03-01T04:28:59;101987.06;;;5.38
69415;BMP280;56608;43.530;-5.652;2023-03-01T04:30:01;101975.56;;;5.34
69415;BMP280;56608;43.530;-5.652;2023-03-01T04:31:06;101986.28;;;5.37
69415;BMP280;56608;43.530;-5.652;2023-03-01T04:32:14;101974.84;;;5.37
69415;BMP280;56608;43.530;-5.652;2023-03-01T04:33:17;101965.72;;;5.38
69415;BMP280;56608;43.530;-5.652;2023-03-01T04:34:19;101973.00;;;5.41
69415;BMP280;56608;43.530;-5.652;2023-03-01T04:35:21;101958.94;;;5.44
69415;BMP280;56608;43.530;-5.652;2023-03-01T04:36:25;101963.47;;;5.40
69415;BMP280;56608;43.530;-5.652;2023-03-01T04:37:27;101965.37;;;5.39
69415;BMP280;56608;43.530;-5.652;2023-03-01T04:38:28;101960.41;;;5.38
69415;BMP280;56608;43.530;-5.652;2023-03-01T04:39:30;101957.03;;;5.41
69415;BMP280;56608;43.530;-5.652;2023-03-01T04:40:32;101963.13;;;5.45
69415;BMP280;56608;43.530;-5.652;2023-03-01T04:41:33;101957.44;;;5.43
69415;BMP280;56608;43.530;-5.652;2023-03-01T04:42:35;101957.78;;;5.41
69415;BMP280;56608;43.530;-5.652;2023-03-01T04:43:36;101964.81;;;5.53
69415;BMP280;56608;43.530;-5.652;2023-03-01T04:44:38;101959.06;;;5.51
69415;BMP280;56608;43.530;-5.652;2023-03-01T04:45:39;101969.72;;;5.51
69415;BMP280;56608;43.530;-5.652;2023-03-01T04:46:40;101948.63;;;5.39
69415;BMP280;56608;43.530;-5.652;2023-03-01T04:47:42;101955.25;;;5.52
69415;BMP280;56608;43.530;-5.652;2023-03-01T04:48:45;101953.59;;;5.44
69415;BMP280;56608;43.530;-5.652;2023-03-01T04:49:48;101952.06;;;5.39
69415;BMP280;56608;43.530;-5.652;2023-03-01T04:50:49;101953.22;;;5.42
69415;BMP280;56608;43.530;-5.652;2023-03-01T04:51:50;101945.31;;;5.49
69415;BMP280;56608;43.530;-5.652;2023-03-01T04:52:52;101953.69;;;5.47
69415;BMP280;56608;43.530;-5.652;2023-03-01T04:53:54;101939.16;;;5.45
69415;BMP280;56608;43.530;-5.652;2023-03-01T04:54:55;101944.47;;;5.45
69415;BMP280;56608;43.530;-5.652;2023-03-01T04:55:57;101941.44;;;5.43
69415;BMP280;56608;43.530;-5.652;2023-03-01T04:56:58;101945.78;;;5.55
69415;BMP280;56608;43.530;-5.652;2023-03-01T04:57:59;101944.59;;;5.52
69415;BMP280;56608;43.530;-5.652;2023-03-01T04:59:01;101944.59;;;5.52
69415;BMP280;56608;43.530;-5.652;2023-03-01T05:00:09;101946.88;;;5.50
69415;BMP280;56608;43.530;-5.652;2023-03-01T05:01:23;101945.00;;;5.54
69415;BMP280;56608;43.530;-5.652;2023-03-01T05:02:25;101945.81;;;5.58
69415;BMP280;56608;43.530;-5.652;2023-03-01T05:03:26;101947.75;;;5.61
69415;BMP280;56608;43.530;-5.652;2023-03-01T05:04:30;101935.88;;;5.55
69415;BMP280;56608;43.530;-5.652;2023-03-01T05:05:33;101943.53;;;5.60
69415;BMP280;56608;43.530;-5.652;2023-03-01T05:06:36;101938.97;;;5.61
69415;BMP280;56608;43.530;-5.652;2023-03-01T05:07:36;101941.94;;;5.52
69415;BMP280;56608;43.530;-5.652;2023-03-01T05:08:39;101936.31;;;5.61
69415;BMP280;56608;43.530;-5.652;2023-03-01T05:09:41;101938.56;;;5.55
69415;BMP280;56608;43.530;-5.652;2023-03-01T05:10:45;101929.44;;;5.60
69415;BMP280;56608;43.530;-5.652;2023-03-01T05:11:47;101927.91;;;5.59
69415;BMP280;56608;43.530;-5.652;2023-03-01T05:12:48;101936.34;;;5.64
69415;BMP280;56608;43.530;-5.652;2023-03-01T05:13:50;101929.41;;;5.56
69415;BMP280;56608;43.530;-5.652;2023-03-01T05:14:55;101920.97;;;5.51
69415;BMP280;56608;43.530;-5.652;2023-03-01T05:15:59;101924.09;;;5.56
69415;BMP280;56608;43.530;-5.652;2023-03-01T05:17:01;101930.56;;;5.59
69415;BMP280;56608;43.530;-5.652;2023-03-01T05:18:05;101923.69;;;5.54
69415;BMP280;56608;43.530;-5.652;2023-03-01T05:19:12;101923.69;;;5.54
69415;BMP280;56608;43.530;-5.652;2023-03-01T05:20:16;101933.97;;;5.56
69415;BMP280;56608;43.530;-5.652;2023-03-01T05:21:17;101920.22;;;5.50
69415;BMP280;56608;43.530;-5.652;2023-03-01T05:22:19;101933.19;;;5.52
69415;BMP280;56608;43.530;-5.652;2023-03-01T05:23:20;101912.94;;;5.47
69415;BMP280;56608;43.530;-5.652;2023-03-01T05:24:22;101930.16;;;5.53
69415;BMP280;56608;43.530;-5.652;2023-03-01T05:25:23;101934.34;;;5.54
69415;BMP280;56608;43.530;-5.652;2023-03-01T05:26:24;101925.59;;;5.54
69415;BMP280;56608;43.530;-5.652;2023-03-01T05:27:29;101919.47;;;5.53
69415;BMP280;56608;43.530;-5.652;2023-03-01T05:28:31;101932.16;;;5.63
69415;BMP280;56608;43.530;-5.652;2023-03-01T05:29:33;101936.66;;;5.56
69415;BMP280;56608;43.530;-5.652;2023-03-01T05:30:36;101919.47;;;5.53
69415;BMP280;56608;43.530;-5.652;2023-03-01T05:31:40;101928.19;;;5.50
69415;BMP280;56608;43.530;-5.652;2023-03-01T05:32:46;101922.56;;;5.59
69415;BMP280;56608;43.530;-5.652;2023-03-01T05:33:48;101911.16;;;5.58
69415;BMP280;56608;43.530;-5.652;2023-03-01T05:34:49;101919.62;;;5.67
69415;BMP280;56608;43.530;-5.652;2023-03-01T05:35:53;101921.44;;;5.60
69415;BMP280;56608;43.530;-5.652;2023-03-01T05:36:55;101914.63;;;5.62
69415;BMP280;56608;43.530;-5.652;2023-03-01T05:37:56;101911.22;;;5.65
69415;BMP280;56608;43.530;-5.652;2023-03-01T05:38:58;101913.44;;;5.60
69415;BMP280;56608;43.530;-5.652;2023-03-01T05:39:59;101908.09;;;5.56
69415;BMP280;56608;43.530;-5.652;2023-03-01T05:41:00;101900.81;;;5.53
69415;BMP280;56608;43.530;-5.652;2023-03-01T05:42:01;101906.56;;;5.55
69415;BMP280;56608;43.530;-5.652;2023-03-01T05:43:03;101893.91;;;5.48
69415;BMP280;56608;43.530;-5.652;2023-03-01T05:44:07;101903.50;;;5.53
69415;BMP280;56608;43.530;-5.652;2023-03-01T05:45:08;101895.19;;;5.58
69415;BMP280;56608;43.530;-5.652;2023-03-01T05:46:10;101889.03;;;5.54
69415;BMP280;56608;43.530;-5.652;2023-03-01T05:47:14;101882.06;;;5.46
69415;BMP280;56608;43.530;-5.652;2023-03-01T05:48:15;101882.56;;;5.55
69415;BMP280;56608;43.530;-5.652;2023-03-01T05:49:17;101891.28;;;5.52
69415;BMP280;56608;43.530;-5.652;2023-03-01T05:50:39;101901.22;;;5.55
69415;BMP280;56608;43.530;-5.652;2023-03-01T05:51:42;101890.87;;;5.50
69415;BMP280;56608;43.530;-5.652;2023-03-01T05:52:48;101883.66;;;5.51
69415;BMP280;56608;43.530;-5.652;2023-03-01T05:53:50;101892.44;;;5.51
69415;BMP280;56608;43.530;-5.652;2023-03-01T05:54:51;101877.84;;;5.45
69415;BMP280;56608;43.530;-5.652;2023-03-01T05:55:53;101880.22;;;5.50
69415;BMP280;56608;43.530;-5.652;2023-03-01T05:56:54;101870.63;;;5.42
69415;BMP280;56608;43.530;-5.652;2023-03-01T05:57:58;101867.66;;;5.51
69415;BMP280;56608;43.530;-5.652;2023-03-01T05:59:01;101879.81;;;5.48
69415;BMP280;56608;43.530;-5.652;2023-03-01T06:00:02;101866.06;;;5.46
69415;BMP280;56608;43.530;-5.652;2023-03-01T06:01:04;101874.50;;;5.48
69415;BMP280;56608;43.530;-5.652;2023-03-01T06:02:05;101867.63;;;5.47
69415;BMP280;56608;43.530;-5.652;2023-03-01T06:03:10;101880.63;;;5.52
69415;BMP280;56608;43.530;-5.652;2023-03-01T06:04:12;101862.34;;;5.51
69415;BMP280;56608;43.530;-5.652;2023-03-01T06:05:14;101877.66;;;5.57
69415;BMP280;56608;43.530;-5.652;2023-03-01T06:06:15;101872.62;;;5.52